createdAt,value
2022-08-08T00:00:53.598Z,0.60
2022-08-08T00:03:32.273Z,0.70
2022-08-08T00:06:41.712Z,0.80
2022-08-08T00:09:52.262Z,0.77
2022-08-08T00:12:39.625Z,0.70
2022-08-08T00:15:56.877Z,0.60
2022-08-08T00:19:03.752Z,0.82
2022-08-08T00:24:59.509Z,0.70
2022-08-08T00:28:34.237Z,0.80
2022-08-08T00:32:20.647Z,0.65
2022-08-08T00:35:04.178Z,0.60
2022-08-08T00:38:01.952Z,0.80
2022-08-08T00:41:10.840Z,0.90
2022-08-08T00:44:10.027Z,0.80
2022-08-08T00:47:23.421Z,0.77
2022-08-08T00:49:59.718Z,0.77
2022-08-08T00:53:15.760Z,0.65
2022-08-08T00:56:41.768Z,0.77
2022-08-08T01:00:11.115Z,0.73
2022-08-08T01:04:01.885Z,0.73
2022-08-08T01:07:01.380Z,0.85
2022-08-08T01:10:20.264Z,0.80
2022-08-08T01:13:43.842Z,0.80
2022-08-08T01:16:54.923Z,0.70
2022-08-08T01:20:01.957Z,0.90
2022-08-08T01:23:03.923Z,0.80
2022-08-08T01:25:42.986Z,0.70
2022-08-08T01:28:41.974Z,0.70
2022-08-08T01:32:12.934Z,0.73
2022-08-08T01:34:29.646Z,0.88
2022-08-08T01:37:57.896Z,0.70
2022-08-08T01:40:46.601Z,0.85
2022-08-08T01:43:41.208Z,0.90
2022-08-08T01:46:43.777Z,0.90
2022-08-08T01:49:40.352Z,0.90
2022-08-08T01:54:35.070Z,0.82
2022-08-08T01:56:26.691Z,1.10
2022-08-08T01:59:17.191Z,0.82
2022-08-08T02:02:10.674Z,0.93
2022-08-08T02:05:56.147Z,0.80
2022-08-08T02:08:47.378Z,1.00
2022-08-08T02:11:58.819Z,0.83
2022-08-08T02:14:58.697Z,1.00
2022-08-08T02:17:44.479Z,1.00
2022-08-08T02:21:00.751Z,0.93
2022-08-08T02:23:32.007Z,1.07
2022-08-08T02:26:30.233Z,0.80
2022-08-08T02:29:26.679Z,0.80
2022-08-08T02:32:48.731Z,1.00
2022-08-08T02:36:02.501Z,1.07
2022-08-08T02:38:55.848Z,1.00
2022-08-08T02:42:17.827Z,1.00
2022-08-08T02:45:51.464Z,1.10
2022-08-08T02:48:46.021Z,0.95
2022-08-08T02:51:59.616Z,1.10
2022-08-08T02:54:41.999Z,0.73
2022-08-08T02:57:44.594Z,0.90
2022-08-08T03:00:51.306Z,0.90
2022-08-08T03:05:03.296Z,1.13
2022-08-08T03:07:13.427Z,1.00
2022-08-08T03:10:33.534Z,1.30
2022-08-08T03:16:01.026Z,1.10
2022-08-08T03:16:50.692Z,0.93
2022-08-08T03:19:50.680Z,1.00
2022-08-08T03:22:38.017Z,1.00
2022-08-08T03:25:18.809Z,1.00
2022-08-08T03:28:10.280Z,1.00
2022-08-08T03:30:49.067Z,1.10
2022-08-08T03:33:55.386Z,1.20
2022-08-08T03:36:20.181Z,1.30
2022-08-08T03:39:14.310Z,1.30
2022-08-08T03:42:26.867Z,1.20
2022-08-08T03:44:52.113Z,1.30
2022-08-08T03:47:27.833Z,1.07
2022-08-08T03:50:24.540Z,0.97
2022-08-08T03:53:03.238Z,1.00
2022-08-08T03:55:56.313Z,1.43
2022-08-08T03:58:37.821Z,1.10
2022-08-08T04:01:26.048Z,1.30
2022-08-08T04:04:03.015Z,1.10
2022-08-08T04:06:57.073Z,1.13
2022-08-08T04:10:03.188Z,1.30
2022-08-08T04:12:31.346Z,1.07
2022-08-08T04:15:05.802Z,1.10
2022-08-08T04:17:46.456Z,1.30
2022-08-08T04:20:31.541Z,1.20
2022-08-08T04:23:07.079Z,1.10
2022-08-08T04:25:41.502Z,1.15
2022-08-08T04:28:37.115Z,1.37
2022-08-08T04:31:09.357Z,1.30
2022-08-08T04:33:42.595Z,1.20
2022-08-08T04:36:17.194Z,1.10
2022-08-08T04:38:57.282Z,1.30
2022-08-08T04:41:42.933Z,1.40
2022-08-08T04:44:16.825Z,1.20
2022-08-08T04:46:52.675Z,1.30
2022-08-08T04:49:28.706Z,1.20
2022-08-08T04:52:02.064Z,1.07
2022-08-08T04:54:42.141Z,1.40
2022-08-08T04:57:16.506Z,1.53
2022-08-08T04:59:49.532Z,1.40
2022-08-08T05:02:28.549Z,1.27
2022-08-08T05:05:04.828Z,1.40
2022-08-08T05:07:42.653Z,1.27
2022-08-08T05:10:19.150Z,1.20
2022-08-08T05:13:01.888Z,1.23
2022-08-08T05:16:47.686Z,1.20
2022-08-08T05:18:33.554Z,1.40
2022-08-08T05:21:43.322Z,1.60
2022-08-08T05:24:37.656Z,1.30
2022-08-08T05:27:15.806Z,1.37
2022-08-08T05:29:50.207Z,1.33
2022-08-08T05:32:27.408Z,1.30
2022-08-08T05:35:05.689Z,1.13
2022-08-08T05:37:54.457Z,1.40
2022-08-08T05:40:57.830Z,1.10
2022-08-08T05:44:02.181Z,1.20
2022-08-08T05:46:28.384Z,1.20
2022-08-08T05:49:11.432Z,1.27
2022-08-08T05:51:48.846Z,1.05
2022-08-08T05:54:42.650Z,1.13
2022-08-08T05:57:45.806Z,1.40
2022-08-08T06:00:22.558Z,1.02
2022-08-08T06:03:17.489Z,1.15
2022-08-08T06:06:09.647Z,1.10
2022-08-08T06:08:55.076Z,1.25
2022-08-08T06:11:34.076Z,1.02
2022-08-08T06:14:19.665Z,1.15
2022-08-08T06:16:55.743Z,0.93
2022-08-08T06:19:42.591Z,1.05
2022-08-08T06:25:13.210Z,1.10
2022-08-08T06:27:56.224Z,0.90
2022-08-08T06:30:35.227Z,0.90
2022-08-08T06:33:13.126Z,0.90
2022-08-08T06:36:06.221Z,0.60
2022-08-08T06:38:52.059Z,0.70
2022-08-08T06:41:33.283Z,0.70
2022-08-08T06:44:25.331Z,0.60
2022-08-08T06:47:14.581Z,0.60
2022-08-08T06:50:04.149Z,0.60
2022-08-08T06:52:59.364Z,0.52
2022-08-08T06:55:43.366Z,0.60
2022-08-08T06:58:20.633Z,0.70
2022-08-08T07:01:01.701Z,0.52
2022-08-08T07:04:37.202Z,0.65
2022-08-08T07:07:18.228Z,0.60
2022-08-08T07:10:18.762Z,0.70
2022-08-08T07:13:06.065Z,0.70
2022-08-08T07:16:10.749Z,0.80
2022-08-08T07:18:57.519Z,0.60
2022-08-08T07:21:45.018Z,0.70
2022-08-08T07:24:29.743Z,0.60
2022-08-08T07:27:16.668Z,0.80
2022-08-08T07:30:02.560Z,0.60
2022-08-08T07:32:48.618Z,0.70
2022-08-08T07:35:22.333Z,0.73
2022-08-08T07:38:04.651Z,0.70
2022-08-08T07:40:55.725Z,0.60
2022-08-08T07:43:38.022Z,0.60
2022-08-08T07:46:23.385Z,0.65
2022-08-08T07:49:06.712Z,0.60
2022-08-08T07:51:53.163Z,0.80
2022-08-08T07:54:33.557Z,0.80
2022-08-08T07:57:48.882Z,0.60
2022-08-08T08:00:30.088Z,0.60
2022-08-08T08:03:20.481Z,0.47
2022-08-08T08:05:59.406Z,0.70
2022-08-08T08:08:50.451Z,0.57
2022-08-08T08:11:38.074Z,0.80
2022-08-08T08:14:42.816Z,0.60
2022-08-08T08:17:20.924Z,0.60
2022-08-08T08:19:59.130Z,0.60
2022-08-08T08:22:33.758Z,0.60
2022-08-08T08:25:09.790Z,0.70
2022-08-08T08:27:46.958Z,0.77
2022-08-08T08:30:21.229Z,0.50
2022-08-08T08:33:00.380Z,0.60
2022-08-08T08:36:19.845Z,0.50
2022-08-08T08:38:28.581Z,0.52
2022-08-08T08:41:17.108Z,0.50
2022-08-08T08:43:52.906Z,0.60
2022-08-08T08:46:50.814Z,0.57
2022-08-08T08:49:25.674Z,0.60
2022-08-08T08:52:04.596Z,0.50
2022-08-08T08:54:39.193Z,0.50
2022-08-08T08:57:25.076Z,0.50
2022-08-08T09:00:05.562Z,0.70
2022-08-08T09:02:42.410Z,0.60
2022-08-08T09:05:48.720Z,0.60
2022-08-08T09:08:20.905Z,0.40
2022-08-08T09:10:56.746Z,0.60
2022-08-08T09:13:33.355Z,0.60
2022-08-08T09:16:11.503Z,0.70
2022-08-08T09:18:48.738Z,0.68
2022-08-08T09:21:56.003Z,0.60
2022-08-08T09:24:17.848Z,0.60
2022-08-08T09:27:09.269Z,0.50
2022-08-08T09:30:17.568Z,0.57
2022-08-08T09:33:12.125Z,0.63
2022-08-08T09:35:53.014Z,0.60
2022-08-08T09:38:53.074Z,0.45
2022-08-08T09:42:13.824Z,0.60
2022-08-08T09:45:04.033Z,0.70
2022-08-08T09:48:04.003Z,0.80
2022-08-08T09:50:37.374Z,0.50
2022-08-08T09:53:24.873Z,0.60
2022-08-08T09:56:24.928Z,0.68
2022-08-08T09:59:25.884Z,0.60
2022-08-08T10:02:13.009Z,0.50
2022-08-08T10:04:48.619Z,0.70
2022-08-08T10:07:25.834Z,0.32
2022-08-08T10:10:01.182Z,0.60
2022-08-08T10:12:53.021Z,0.50
2022-08-08T10:15:28.547Z,0.60
2022-08-08T10:18:09.057Z,0.50
2022-08-08T10:20:57.495Z,0.60
2022-08-08T10:23:41.818Z,0.63
2022-08-08T10:26:30.396Z,0.50
2022-08-08T10:29:11.605Z,0.60
2022-08-08T10:32:04.809Z,0.60
2022-08-08T10:34:49.432Z,0.60
2022-08-08T10:37:30.694Z,0.50
2022-08-08T10:40:16.511Z,0.60
2022-08-08T10:42:54.791Z,0.50
2022-08-08T10:45:30.631Z,0.40
2022-08-08T10:48:14.036Z,0.40
2022-08-08T10:50:47.076Z,0.45
2022-08-08T10:53:39.288Z,0.50
2022-08-08T10:56:34.785Z,0.60
2022-08-08T10:59:09.393Z,0.60
2022-08-08T11:01:49.396Z,0.55
2022-08-08T11:04:38.634Z,0.47
2022-08-08T11:07:15.145Z,0.60
2022-08-08T11:10:10.891Z,0.60
2022-08-08T11:13:12.214Z,0.57
2022-08-08T11:15:58.742Z,0.50
2022-08-08T11:18:36.082Z,0.50
2022-08-08T11:21:10.658Z,0.52
2022-08-08T11:24:02.153Z,0.40
2022-08-08T11:26:53.991Z,0.55
2022-08-08T11:29:51.146Z,0.65
2022-08-08T11:32:31.328Z,0.55
2022-08-08T11:35:24.832Z,0.60
2022-08-08T11:38:39.527Z,0.55
2022-08-08T11:40:55.894Z,0.65
2022-08-08T11:43:39.372Z,0.45
2022-08-08T11:46:18.117Z,0.45
2022-08-08T11:48:52.879Z,0.60
2022-08-08T11:51:38.035Z,0.70
2022-08-08T11:54:31.411Z,0.70
2022-08-08T11:57:14.306Z,0.60
2022-08-08T12:00:05.886Z,0.50
2022-08-08T12:02:51.583Z,0.40
2022-08-08T12:05:33.849Z,0.50
2022-08-08T12:08:07.420Z,0.50
2022-08-08T12:10:51.397Z,0.52
2022-08-08T12:13:37.742Z,0.75
2022-08-08T12:16:20.691Z,0.88
2022-08-08T12:19:12.311Z,0.50
2022-08-08T12:21:59.196Z,0.40
2022-08-08T12:24:54.260Z,0.40
2022-08-08T12:27:45.297Z,0.82
2022-08-08T12:30:31.635Z,0.50
2022-08-08T12:33:07.911Z,0.60
2022-08-08T12:35:51.999Z,0.60
2022-08-08T12:38:31.317Z,0.50
2022-08-08T12:41:33.500Z,0.40
2022-08-08T12:44:10.559Z,0.50
2022-08-08T12:46:59.308Z,0.63
2022-08-08T12:49:44.954Z,0.50
2022-08-08T12:52:37.462Z,0.55
2022-08-08T12:55:14.276Z,0.80
2022-08-08T12:58:15.619Z,0.50
2022-08-08T13:00:51.268Z,0.50
2022-08-08T13:03:33.498Z,0.50
2022-08-08T13:06:14.592Z,0.50
2022-08-08T13:08:53.438Z,0.50
2022-08-08T13:12:19.602Z,0.50
2022-08-08T13:14:52.788Z,0.52
2022-08-08T13:18:08.594Z,0.50
2022-08-08T13:20:21.867Z,0.40
2022-08-08T13:23:26.889Z,0.50
2022-08-08T13:25:51.045Z,0.50
2022-08-08T13:28:32.970Z,0.82
2022-08-08T13:31:11.946Z,0.60
2022-08-08T13:33:50.488Z,0.50
2022-08-08T13:36:25.936Z,0.50
2022-08-08T13:39:00.265Z,0.40
2022-08-08T13:41:37.945Z,0.50
2022-08-08T13:44:13.877Z,0.40
2022-08-08T13:46:57.626Z,0.50
2022-08-08T13:50:35.790Z,0.57
2022-08-08T13:52:37.399Z,0.60
2022-08-08T13:55:29.565Z,0.50
2022-08-08T13:58:20.059Z,0.50
2022-08-08T14:00:53.348Z,0.40
2022-08-08T14:03:53.138Z,0.60
2022-08-08T14:06:33.527Z,0.50
2022-08-08T14:09:24.550Z,0.50
2022-08-08T14:12:05.064Z,0.60
2022-08-08T14:14:47.243Z,0.43
2022-08-08T14:17:22.624Z,0.40
2022-08-08T14:20:15.638Z,0.50
2022-08-08T14:23:21.184Z,0.30
2022-08-08T14:26:11.521Z,0.50
2022-08-08T14:28:52.866Z,0.50
2022-08-08T14:32:05.936Z,0.35
2022-08-08T14:34:27.861Z,0.50
2022-08-08T14:37:08.199Z,0.60
2022-08-08T14:39:53.620Z,0.40
2022-08-08T14:42:54.794Z,0.50
2022-08-08T14:45:46.756Z,0.50
2022-08-08T14:48:34.892Z,0.45
2022-08-08T14:51:17.857Z,0.70
2022-08-08T14:53:55.845Z,0.50
2022-08-08T14:56:29.529Z,0.57
2022-08-08T14:59:03.102Z,0.50
2022-08-08T15:01:55.703Z,0.70
2022-08-08T15:04:29.266Z,1.00
2022-08-08T15:07:02.762Z,0.70
2022-08-08T15:09:37.289Z,0.95
2022-08-08T15:12:11.809Z,0.80
2022-08-08T15:14:44.748Z,0.47
2022-08-08T15:17:19.185Z,0.40
2022-08-08T15:19:52.462Z,0.45
2022-08-08T15:22:27.464Z,0.60
2022-08-08T15:25:17.156Z,0.50
2022-08-08T15:28:04.885Z,0.43
2022-08-08T15:30:44.159Z,0.50
2022-08-08T15:33:20.838Z,0.60
2022-08-08T15:36:08.583Z,0.50
2022-08-08T15:38:50.218Z,0.60
2022-08-08T15:41:24.508Z,0.50
2022-08-08T15:44:01.121Z,0.60
2022-08-08T15:46:36.096Z,0.40
2022-08-08T15:49:09.075Z,0.63
2022-08-08T15:51:43.092Z,0.45
2022-08-08T15:54:37.263Z,0.60
2022-08-08T15:57:10.431Z,1.10
2022-08-08T16:00:05.099Z,0.70
2022-08-08T16:02:50.255Z,0.50
2022-08-08T16:05:24.278Z,1.40
2022-08-08T16:08:12.150Z,1.00
2022-08-08T16:13:09.544Z,0.60
2022-08-08T16:13:43.671Z,0.50
2022-08-08T16:16:18.789Z,0.50
2022-08-08T16:18:57.937Z,0.50
2022-08-08T16:21:33.213Z,0.40
2022-08-08T16:24:14.397Z,0.50
2022-08-08T16:26:50.599Z,0.60
2022-08-08T16:30:07.842Z,0.70
2022-08-08T16:32:21.799Z,0.50
2022-08-08T16:34:59.187Z,0.68
2022-08-08T16:37:32.259Z,0.55
2022-08-08T16:40:07.207Z,0.60
2022-08-08T16:42:40.604Z,0.65
2022-08-08T16:46:36.416Z,0.80
2022-08-08T16:48:07.047Z,0.60
2022-08-08T16:50:40.046Z,0.65
2022-08-08T16:55:03.429Z,2.03
2022-08-08T16:56:08.851Z,0.60
2022-08-08T16:58:47.472Z,0.60
2022-08-08T17:01:23.050Z,0.50
2022-08-08T17:03:58.750Z,0.57
2022-08-08T17:06:39.522Z,0.77
2022-08-08T17:09:19.561Z,0.50
2022-08-08T17:11:59.290Z,0.57
2022-08-08T17:14:36.442Z,0.57
2022-08-08T17:17:22.886Z,0.60
2022-08-08T17:20:06.116Z,0.57
2022-08-08T17:22:42.588Z,0.90
2022-08-08T17:25:15.898Z,0.60
2022-08-08T17:27:49.788Z,0.50
2022-08-08T17:30:29.385Z,0.60
2022-08-08T17:34:36.504Z,0.60
2022-08-08T17:36:12.470Z,0.50
2022-08-08T17:38:49.548Z,0.60
2022-08-08T17:41:38.567Z,0.77
2022-08-08T17:44:12.296Z,0.65
2022-08-08T17:46:47.674Z,0.50
2022-08-08T17:49:28.640Z,0.57
2022-08-08T17:52:11.456Z,0.60
2022-08-08T17:54:46.207Z,0.60
2022-08-08T17:57:19.830Z,0.50
2022-08-08T17:59:58.522Z,0.60
2022-08-08T18:02:32.130Z,0.70
2022-08-08T18:05:09.224Z,0.60
2022-08-08T18:08:02.187Z,0.73
2022-08-08T18:10:36.559Z,0.70
2022-08-08T18:13:09.417Z,0.73
2022-08-08T18:15:42.459Z,0.60
2022-08-08T18:18:29.381Z,0.63
2022-08-08T18:21:10.450Z,0.70
2022-08-08T18:23:58.032Z,3.47
2022-08-08T18:26:33.537Z,0.70
2022-08-08T18:29:08.458Z,0.80
2022-08-08T18:31:49.380Z,0.85
2022-08-08T18:34:27.645Z,0.77
2022-08-08T18:37:06.486Z,0.82
2022-08-08T18:39:42.302Z,1.10
2022-08-08T18:42:16.415Z,0.80
2022-08-08T18:44:53.074Z,1.00
2022-08-08T18:47:33.391Z,1.00
2022-08-08T18:50:07.154Z,0.88
2022-08-08T18:52:40.408Z,1.05
2022-08-08T18:55:17.098Z,1.00
2022-08-08T18:57:53.445Z,1.30
2022-08-08T19:00:26.332Z,1.05
2022-08-08T19:03:05.908Z,1.23
2022-08-08T19:05:45.516Z,0.90
2022-08-08T19:08:24.891Z,1.10
2022-08-08T19:11:02.450Z,1.50
2022-08-08T19:13:52.821Z,1.30
2022-08-08T19:16:32.164Z,1.20
2022-08-08T19:19:09.758Z,1.20
2022-08-08T19:21:49.627Z,1.25
2022-08-08T19:24:42.378Z,1.27
2022-08-08T19:27:15.851Z,1.38
2022-08-08T19:29:50.045Z,1.55
2022-08-08T19:32:23.263Z,1.38
2022-08-08T19:34:58.250Z,1.45
2022-08-08T19:37:43.010Z,1.40
2022-08-08T19:40:18.182Z,1.50
2022-08-08T19:42:54.884Z,1.40
2022-08-08T19:45:59.462Z,1.27
2022-08-08T19:48:29.354Z,1.30
2022-08-08T19:51:04.291Z,1.38
2022-08-08T19:53:51.111Z,1.30
2022-08-08T19:56:39.681Z,1.50
2022-08-08T19:59:13.318Z,1.10
2022-08-08T20:02:00.963Z,1.50
2022-08-08T20:04:36.803Z,1.40
2022-08-08T20:08:31.221Z,1.45
2022-08-08T20:10:04.668Z,1.50
2022-08-08T20:12:39.961Z,1.40
2022-08-08T20:15:59.908Z,1.20
2022-08-08T20:18:37.111Z,1.60
2022-08-08T20:21:10.917Z,1.40
2022-08-08T20:23:47.369Z,1.40
2022-08-08T20:26:27.598Z,1.70
2022-08-08T20:29:04.956Z,1.48
2022-08-08T20:32:07.307Z,1.23
2022-08-08T20:34:33.414Z,1.50
2022-08-08T20:37:09.513Z,1.40
2022-08-08T20:39:51.466Z,1.42
2022-08-08T20:42:28.645Z,1.30
2022-08-08T20:45:04.542Z,1.65
2022-08-08T20:47:39.117Z,1.75
2022-08-08T20:50:12.206Z,1.77
2022-08-08T20:52:48.376Z,1.50
2022-08-08T20:55:25.489Z,1.70
2022-08-08T20:57:58.969Z,1.40
2022-08-08T21:00:31.798Z,1.60
2022-08-08T21:03:09.872Z,1.60
2022-08-08T21:05:59.572Z,1.80
2022-08-08T21:08:36.884Z,1.70
2022-08-08T21:11:50.700Z,1.48
2022-08-08T21:14:14.717Z,1.77
2022-08-08T21:16:47.747Z,1.73
2022-08-08T21:19:20.810Z,2.40
2022-08-08T21:21:57.935Z,1.67
2022-08-08T21:24:31.180Z,1.52
2022-08-08T21:27:06.655Z,1.50
2022-08-08T21:30:02.588Z,1.48
2022-08-08T21:32:38.961Z,1.40
2022-08-08T21:36:16.156Z,1.63
2022-08-08T21:38:05.636Z,1.58
2022-08-08T21:40:42.186Z,1.90
2022-08-08T21:43:33.200Z,1.80
2022-08-08T21:48:03.730Z,1.52
2022-08-08T21:49:03.357Z,1.60
2022-08-08T21:54:18.297Z,1.90
2022-08-08T21:54:53.614Z,1.90
2022-08-08T21:57:26.455Z,1.67
2022-08-08T22:00:05.051Z,1.48
2022-08-08T22:02:47.545Z,1.60
2022-08-08T22:05:21.379Z,1.50
2022-08-08T22:08:00.242Z,1.70
2022-08-08T22:10:35.611Z,1.65
2022-08-08T22:13:18.261Z,1.88
2022-08-08T22:15:58.691Z,1.83
2022-08-08T22:18:34.314Z,1.40
2022-08-08T22:21:14.713Z,2.00
2022-08-08T22:23:53.494Z,1.95
2022-08-08T22:26:30.923Z,1.52
2022-08-08T22:29:56.905Z,1.90
2022-08-08T22:31:58.197Z,1.55
2022-08-08T22:34:39.255Z,1.30
2022-08-08T22:37:27.899Z,1.75
2022-08-08T22:40:07.479Z,1.60
2022-08-08T22:42:45.647Z,1.60
2022-08-08T22:45:20.222Z,1.77
2022-08-08T22:47:55.038Z,1.70
2022-08-08T22:50:29.226Z,1.58
2022-08-08T22:54:27.775Z,1.60
2022-08-08T22:56:01.362Z,1.42
2022-08-08T22:58:35.216Z,1.75
2022-08-08T23:01:16.731Z,1.63
2022-08-08T23:04:04.579Z,1.67
2022-08-08T23:06:38.048Z,1.80
2022-08-08T23:09:10.760Z,1.90
2022-08-08T23:12:17.866Z,1.83
2022-08-08T23:14:36.536Z,1.40
2022-08-08T23:17:09.216Z,1.70
2022-08-08T23:19:45.113Z,1.70
2022-08-08T23:22:26.943Z,1.85
2022-08-08T23:25:03.169Z,1.67
2022-08-08T23:27:39.426Z,1.58
2022-08-08T23:30:22.054Z,1.90
2022-08-08T23:32:54.837Z,1.70
2022-08-08T23:35:34.438Z,1.55
2022-08-08T23:38:20.930Z,1.60
2022-08-08T23:40:54.435Z,1.73
2022-08-08T23:43:31.861Z,1.50
2022-08-08T23:49:06.939Z,1.70
2022-08-08T23:49:18.016Z,1.65
2022-08-08T23:52:05.840Z,1.58
2022-08-08T23:55:00.673Z,1.77
2022-08-08T23:57:39.282Z,1.55
